createdAt,value
2022-11-19T00:00:52.214Z,9.93
2022-11-19T00:01:54.910Z,9.93
2022-11-19T00:02:57.654Z,9.93
2022-11-19T00:04:00.600Z,8.77
2022-11-19T00:05:03.301Z,10.20
2022-11-19T00:06:09.275Z,9.68
2022-11-19T00:07:12.134Z,9.82
2022-11-19T00:08:18.959Z,9.63
2022-11-19T00:09:21.778Z,9.77
2022-11-19T00:10:24.446Z,9.63
2022-11-19T00:11:47.145Z,9.43
2022-11-19T00:12:55.543Z,9.90
2022-11-19T00:13:58.526Z,9.43
2022-11-19T00:15:01.096Z,9.45
2022-11-19T00:16:08.059Z,10.07
2022-11-19T00:17:10.867Z,10.07
2022-11-19T00:18:14.171Z,9.50
2022-11-19T00:19:17.071Z,10.00
2022-11-19T00:20:20.013Z,9.45
2022-11-19T00:21:22.971Z,9.43
2022-11-19T00:22:25.659Z,9.05
2022-11-19T00:23:28.258Z,9.40
2022-11-19T00:24:30.983Z,9.10
2022-11-19T00:25:33.898Z,9.05
2022-11-19T00:26:36.859Z,9.13
2022-11-19T00:27:39.812Z,8.40
2022-11-19T00:28:42.695Z,9.52
2022-11-19T00:29:45.529Z,9.82
2022-11-19T00:30:48.839Z,8.82
2022-11-19T00:31:51.659Z,9.73
2022-11-19T00:32:54.297Z,8.55
2022-11-19T00:33:56.991Z,9.13
2022-11-19T00:34:59.650Z,9.55
2022-11-19T00:36:03.815Z,8.63
2022-11-19T00:37:06.581Z,9.57
2022-11-19T00:38:09.561Z,9.90
2022-11-19T00:39:12.335Z,9.40
2022-11-19T00:40:15.227Z,9.23
2022-11-19T00:41:18.226Z,9.45
2022-11-19T00:42:21.331Z,10.10
2022-11-19T00:43:43.243Z,9.77
2022-11-19T00:44:45.959Z,9.88
2022-11-19T00:45:49.276Z,9.65
2022-11-19T00:46:52.016Z,9.80
2022-11-19T00:47:54.577Z,10.45
2022-11-19T00:48:59.999Z,10.32
2022-11-19T00:50:02.576Z,10.73
2022-11-19T00:51:07.190Z,10.35
2022-11-19T00:52:09.959Z,10.02
2022-11-19T00:53:12.824Z,10.30
2022-11-19T00:54:15.591Z,10.00
2022-11-19T00:55:18.334Z,10.32
2022-11-19T00:56:24.927Z,9.48
2022-11-19T00:57:27.530Z,10.73
2022-11-19T00:58:30.480Z,10.30
2022-11-19T00:59:33.140Z,10.20
2022-11-19T01:00:35.968Z,10.27
2022-11-19T01:01:38.830Z,11.20
2022-11-19T01:02:41.649Z,10.75
2022-11-19T01:03:46.185Z,10.13
2022-11-19T01:04:48.967Z,10.60
2022-11-19T01:05:52.146Z,11.48
2022-11-19T01:06:55.307Z,10.65
2022-11-19T01:07:58.105Z,9.60
2022-11-19T01:09:01.001Z,10.57
2022-11-19T01:10:04.119Z,10.48
2022-11-19T01:11:08.557Z,10.18
2022-11-19T01:12:11.171Z,10.50
2022-11-19T01:13:36.733Z,9.50
2022-11-19T01:14:39.362Z,9.30
2022-11-19T01:15:42.125Z,9.95
2022-11-19T01:16:45.021Z,11.23
2022-11-19T01:17:48.021Z,9.88
2022-11-19T01:18:52.118Z,10.10
2022-11-19T01:19:55.725Z,9.68
2022-11-19T01:20:58.427Z,9.70
2022-11-19T01:22:01.005Z,9.38
2022-11-19T01:23:03.722Z,9.98
2022-11-19T01:24:06.802Z,10.25
2022-11-19T01:25:09.840Z,9.40
2022-11-19T01:26:13.939Z,10.70
2022-11-19T01:27:16.651Z,11.20
2022-11-19T01:28:19.501Z,10.50
2022-11-19T01:29:22.360Z,10.98
2022-11-19T01:30:25.031Z,10.75
2022-11-19T01:31:29.786Z,9.55
2022-11-19T01:32:33.037Z,10.43
2022-11-19T01:33:36.406Z,10.73
2022-11-19T01:34:39.106Z,10.30
2022-11-19T01:35:42.135Z,10.60
2022-11-19T01:36:45.130Z,10.45
2022-11-19T01:37:47.737Z,10.75
2022-11-19T01:38:51.267Z,10.82
2022-11-19T01:39:53.979Z,11.50
2022-11-19T01:40:57.847Z,12.57
2022-11-19T01:42:00.545Z,11.38
2022-11-19T01:43:03.094Z,10.88
2022-11-19T01:44:08.377Z,11.45
2022-11-19T01:45:32.364Z,13.35
2022-11-19T01:46:38.557Z,12.13
2022-11-19T01:47:41.210Z,12.10
2022-11-19T01:48:51.260Z,11.75
2022-11-19T01:49:54.510Z,11.18
2022-11-19T01:51:05.671Z,9.82
2022-11-19T01:52:08.874Z,11.05
2022-11-19T01:53:12.980Z,11.10
2022-11-19T01:54:42.653Z,10.90
2022-11-19T01:55:47.349Z,10.50
2022-11-19T01:56:50.077Z,11.10
2022-11-19T01:57:59.037Z,11.68
2022-11-19T01:59:11.553Z,10.88
2022-11-19T02:00:14.635Z,10.10
2022-11-19T02:01:20.087Z,11.30
2022-11-19T02:02:24.286Z,11.05
2022-11-19T02:03:31.279Z,12.23
2022-11-19T02:04:35.478Z,11.90
2022-11-19T02:05:39.716Z,11.12
2022-11-19T02:06:44.463Z,10.95
2022-11-19T02:07:56.691Z,11.02
2022-11-19T02:08:59.512Z,11.52
2022-11-19T02:10:05.261Z,12.37
2022-11-19T02:11:25.998Z,10.85
2022-11-19T02:12:28.573Z,11.12
2022-11-19T02:13:36.427Z,11.48
2022-11-19T02:15:00.027Z,11.15
2022-11-19T02:16:11.775Z,12.37
2022-11-19T02:18:52.054Z,10.70
2022-11-19T02:20:00.221Z,9.93
2022-11-19T02:21:48.006Z,11.00
2022-11-19T02:23:29.262Z,12.40
2022-11-19T02:24:54.018Z,11.27
2022-11-19T02:26:33.920Z,11.80
2022-11-19T02:28:00.787Z,11.98
2022-11-19T02:29:18.930Z,11.95
2022-11-19T02:30:21.924Z,10.85
2022-11-19T02:31:30.865Z,12.70
2022-11-19T02:32:38.960Z,11.32
2022-11-19T02:33:50.827Z,11.73
2022-11-19T02:35:04.851Z,11.23
2022-11-19T02:36:17.148Z,11.00
2022-11-19T02:37:41.291Z,10.27
2022-11-19T02:39:03.884Z,11.18
2022-11-19T02:40:14.112Z,10.27
2022-11-19T02:41:39.942Z,12.30
2022-11-19T02:42:51.115Z,11.73
2022-11-19T02:44:21.327Z,12.10
2022-11-19T02:45:28.929Z,12.45
2022-11-19T02:46:32.057Z,13.25
2022-11-19T02:47:40.680Z,11.50
2022-11-19T02:48:51.398Z,11.75
2022-11-19T02:50:01.413Z,12.13
2022-11-19T02:51:05.016Z,12.77
2022-11-19T02:52:08.476Z,11.73
2022-11-19T02:53:11.247Z,13.32
2022-11-19T02:54:17.701Z,12.23
2022-11-19T02:55:21.726Z,12.43
2022-11-19T02:56:46.035Z,11.60
2022-11-19T02:58:04.934Z,11.68
2022-11-19T02:59:26.870Z,11.75
2022-11-19T03:00:54.601Z,12.70
2022-11-19T03:02:17.924Z,12.65
2022-11-19T03:03:40.652Z,12.63
2022-11-19T03:04:43.428Z,12.30
2022-11-19T03:05:52.298Z,12.55
2022-11-19T03:07:07.055Z,11.90
2022-11-19T03:08:09.891Z,12.57
2022-11-19T03:09:13.489Z,13.02
2022-11-19T03:10:20.453Z,13.20
2022-11-19T03:11:29.331Z,12.80
2022-11-19T03:12:59.690Z,12.37
2022-11-19T03:14:35.569Z,12.98
2022-11-19T03:16:05.978Z,13.02
2022-11-19T03:17:22.490Z,12.80
2022-11-19T03:18:50.016Z,13.30
2022-11-19T03:20:27.209Z,12.82
2022-11-19T03:21:39.771Z,13.75
2022-11-19T03:22:45.704Z,13.90
2022-11-19T03:23:54.971Z,13.75
2022-11-19T03:25:12.591Z,12.95
2022-11-19T03:26:33.057Z,12.15
2022-11-19T03:27:41.449Z,13.50
2022-11-19T03:28:47.053Z,14.00
2022-11-19T03:29:54.102Z,14.68
2022-11-19T03:31:00.511Z,12.52
2022-11-19T03:32:08.728Z,13.57
2022-11-19T03:33:17.618Z,12.25
2022-11-19T03:34:23.703Z,12.88
2022-11-19T03:35:32.060Z,13.27
2022-11-19T03:36:40.850Z,12.77
2022-11-19T03:37:50.837Z,13.07
2022-11-19T03:38:58.860Z,12.43
2022-11-19T03:40:03.345Z,11.85
2022-11-19T03:41:07.484Z,12.60
2022-11-19T03:42:13.170Z,13.57
2022-11-19T03:43:20.420Z,13.45
2022-11-19T03:44:38.291Z,11.73
2022-11-19T03:45:44.447Z,12.85
2022-11-19T03:46:52.692Z,12.52
2022-11-19T03:47:57.505Z,12.48
2022-11-19T03:49:02.515Z,13.62
2022-11-19T03:50:31.332Z,12.45
2022-11-19T03:52:10.750Z,11.68
2022-11-19T03:53:13.572Z,12.82
2022-11-19T03:54:16.650Z,13.27
2022-11-19T03:55:24.810Z,12.40
2022-11-19T03:56:29.503Z,11.77
2022-11-19T03:57:32.252Z,12.75
2022-11-19T03:58:43.733Z,12.93
2022-11-19T03:59:47.372Z,12.40
2022-11-19T04:00:50.058Z,13.10
2022-11-19T04:01:56.622Z,13.25
2022-11-19T04:03:00.104Z,12.65
2022-11-19T04:04:21.614Z,12.90
2022-11-19T04:05:24.333Z,14.25
2022-11-19T04:06:27.132Z,13.95
2022-11-19T04:07:29.885Z,12.05
2022-11-19T04:08:33.154Z,12.23
2022-11-19T04:09:36.004Z,13.70
2022-11-19T04:10:38.693Z,13.77
2022-11-19T04:11:41.500Z,13.25
2022-11-19T04:12:44.182Z,14.30
2022-11-19T04:13:46.929Z,13.27
2022-11-19T04:14:55.116Z,13.00
2022-11-19T04:15:57.731Z,13.25
2022-11-19T04:17:01.050Z,13.73
2022-11-19T04:18:03.931Z,14.40
2022-11-19T04:19:06.611Z,14.00
2022-11-19T04:20:10.172Z,14.43
2022-11-19T04:21:12.812Z,14.82
2022-11-19T04:22:15.462Z,15.00
2022-11-19T04:23:18.172Z,13.68
2022-11-19T04:24:21.009Z,13.10
2022-11-19T04:25:23.736Z,13.73
2022-11-19T04:26:26.368Z,14.65
2022-11-19T04:27:28.971Z,12.82
2022-11-19T04:28:31.734Z,14.00
2022-11-19T04:29:34.496Z,13.90
2022-11-19T04:30:37.093Z,13.02
2022-11-19T04:31:40.049Z,13.85
2022-11-19T04:32:43.063Z,13.77
2022-11-19T04:33:46.257Z,12.93
2022-11-19T04:34:49.770Z,12.75
2022-11-19T04:35:52.436Z,14.15
2022-11-19T04:36:55.208Z,12.80
2022-11-19T04:37:57.828Z,14.07
2022-11-19T04:39:00.532Z,13.68
2022-11-19T04:40:03.614Z,13.65
2022-11-19T04:41:06.459Z,14.65
2022-11-19T04:42:09.011Z,14.10
2022-11-19T04:43:11.660Z,12.98
2022-11-19T04:44:14.332Z,13.77
2022-11-19T04:45:17.169Z,13.62
2022-11-19T04:46:19.891Z,13.88
2022-11-19T04:47:22.854Z,15.07
2022-11-19T04:48:25.611Z,15.02
2022-11-19T04:49:28.217Z,13.05
2022-11-19T04:50:30.902Z,13.43
2022-11-19T04:51:33.509Z,13.15
2022-11-19T04:52:40.864Z,13.48
2022-11-19T04:53:44.503Z,13.20
2022-11-19T04:54:47.215Z,12.95
2022-11-19T04:55:49.810Z,13.82
2022-11-19T04:56:52.609Z,13.80
2022-11-19T04:57:55.618Z,13.27
2022-11-19T04:58:59.047Z,12.65
2022-11-19T05:00:01.689Z,13.15
2022-11-19T05:01:05.284Z,13.05
2022-11-19T05:02:07.977Z,13.07
2022-11-19T05:03:10.658Z,13.55
2022-11-19T05:04:13.529Z,13.90
2022-11-19T05:05:16.169Z,13.27
2022-11-19T05:06:18.881Z,13.30
2022-11-19T05:07:21.546Z,13.80
2022-11-19T05:08:24.458Z,13.77
2022-11-19T05:09:27.056Z,13.40
2022-11-19T05:10:32.573Z,12.40
2022-11-19T05:11:35.138Z,14.25
2022-11-19T05:12:37.732Z,13.13
2022-11-19T05:13:40.450Z,14.02
2022-11-19T05:14:43.289Z,14.23
2022-11-19T05:15:46.498Z,13.90
2022-11-19T05:16:49.358Z,13.38
2022-11-19T05:17:52.171Z,13.18
2022-11-19T05:18:54.888Z,14.20
2022-11-19T05:19:59.733Z,13.45
2022-11-19T05:21:02.409Z,13.18
2022-11-19T05:22:04.981Z,14.35
2022-11-19T05:23:07.784Z,13.88
2022-11-19T05:24:10.377Z,13.88
2022-11-19T05:25:13.091Z,13.30
2022-11-19T05:26:15.978Z,13.57
2022-11-19T05:27:18.777Z,14.45
2022-11-19T05:28:32.846Z,13.75
2022-11-19T05:29:41.253Z,12.82
2022-11-19T05:30:44.014Z,13.07
2022-11-19T05:31:46.700Z,13.07
2022-11-19T05:32:49.405Z,13.43
2022-11-19T05:33:52.043Z,13.25
2022-11-19T05:34:54.720Z,12.88
2022-11-19T05:35:57.423Z,14.60
2022-11-19T05:36:59.948Z,13.50
2022-11-19T05:38:02.658Z,13.88
2022-11-19T05:39:05.351Z,13.57
2022-11-19T05:40:08.715Z,13.38
2022-11-19T05:41:11.448Z,13.15
2022-11-19T05:42:14.231Z,14.38
2022-11-19T05:43:17.016Z,13.25
2022-11-19T05:44:19.643Z,13.18
2022-11-19T05:45:22.359Z,14.35
2022-11-19T05:46:25.239Z,12.82
2022-11-19T05:47:28.730Z,13.55
2022-11-19T05:48:31.244Z,14.90
2022-11-19T05:49:33.830Z,14.32
2022-11-19T05:50:36.467Z,14.07
2022-11-19T05:51:39.042Z,13.62
2022-11-19T05:52:41.656Z,13.85
2022-11-19T05:53:44.408Z,14.70
2022-11-19T05:54:47.078Z,13.35
2022-11-19T05:55:49.743Z,14.02
2022-11-19T05:56:52.380Z,12.65
2022-11-19T05:57:55.129Z,14.43
2022-11-19T05:58:57.824Z,14.93
2022-11-19T06:00:00.601Z,12.95
2022-11-19T06:01:03.912Z,14.80
2022-11-19T06:02:06.564Z,13.50
2022-11-19T06:03:10.964Z,14.77
2022-11-19T06:04:13.957Z,15.70
2022-11-19T06:05:16.616Z,15.63
2022-11-19T06:06:19.711Z,14.63
2022-11-19T06:07:22.593Z,14.93
2022-11-19T06:08:25.662Z,15.55
2022-11-19T06:09:28.341Z,14.00
2022-11-19T06:10:31.128Z,14.57
2022-11-19T06:11:48.849Z,14.95
2022-11-19T06:12:51.492Z,13.77
2022-11-19T06:13:54.123Z,14.35
2022-11-19T06:14:56.822Z,14.70
2022-11-19T06:15:59.472Z,14.95
2022-11-19T06:17:02.850Z,15.05
2022-11-19T06:18:05.702Z,14.60
2022-11-19T06:19:09.281Z,14.70
2022-11-19T06:20:12.262Z,15.38
2022-11-19T06:21:15.192Z,16.05
2022-11-19T06:22:18.033Z,14.63
2022-11-19T06:23:21.893Z,14.68
2022-11-19T06:24:24.715Z,15.48
2022-11-19T06:25:30.874Z,14.95
2022-11-19T06:26:34.063Z,14.05
2022-11-19T06:27:36.794Z,15.13
2022-11-19T06:28:39.486Z,14.73
2022-11-19T06:29:42.081Z,15.07
2022-11-19T06:30:45.706Z,15.70
2022-11-19T06:31:48.519Z,14.85
2022-11-19T06:32:51.142Z,14.87
2022-11-19T06:33:53.834Z,14.60
2022-11-19T06:34:56.525Z,14.75
2022-11-19T06:35:59.225Z,15.07
2022-11-19T06:37:01.774Z,15.18
2022-11-19T06:38:04.505Z,15.40
2022-11-19T06:39:07.252Z,15.80
2022-11-19T06:40:11.807Z,14.90
2022-11-19T06:41:14.599Z,14.65
2022-11-19T06:42:35.946Z,14.65
2022-11-19T06:43:38.567Z,14.63
2022-11-19T06:44:41.231Z,15.45
2022-11-19T06:45:43.802Z,14.45
2022-11-19T06:46:46.790Z,14.63
2022-11-19T06:47:52.861Z,14.65
2022-11-19T06:48:55.415Z,15.10
2022-11-19T06:49:58.166Z,16.00
2022-11-19T06:51:01.876Z,16.17
2022-11-19T06:52:04.972Z,15.27
2022-11-19T06:53:07.528Z,15.77
2022-11-19T06:54:10.245Z,14.60
2022-11-19T06:55:13.675Z,14.68
2022-11-19T06:56:16.289Z,15.65
2022-11-19T06:57:18.832Z,16.05
2022-11-19T06:58:21.547Z,15.52
2022-11-19T06:59:24.050Z,16.23
2022-11-19T07:00:26.771Z,15.18
2022-11-19T07:01:29.581Z,16.00
2022-11-19T07:02:32.465Z,16.75
2022-11-19T07:03:35.860Z,17.15
2022-11-19T07:04:38.907Z,18.27
2022-11-19T07:05:42.056Z,17.80
2022-11-19T07:06:44.639Z,17.52
2022-11-19T07:07:47.212Z,17.58
2022-11-19T07:08:49.912Z,16.77
2022-11-19T07:09:52.831Z,16.60
2022-11-19T07:10:56.985Z,16.05
2022-11-19T07:11:59.562Z,16.00
2022-11-19T07:13:02.467Z,16.83
2022-11-19T07:14:05.019Z,15.27
2022-11-19T07:15:08.335Z,15.43
2022-11-19T07:16:13.121Z,16.23
2022-11-19T07:17:15.794Z,14.27
2022-11-19T07:18:18.477Z,16.00
2022-11-19T07:19:21.875Z,15.95
2022-11-19T07:20:25.040Z,16.58
2022-11-19T07:21:29.577Z,17.30
2022-11-19T07:22:32.438Z,16.35
2022-11-19T07:23:35.050Z,16.95
2022-11-19T07:24:37.641Z,16.45
2022-11-19T07:25:40.287Z,16.23
2022-11-19T07:26:42.945Z,16.50
2022-11-19T07:27:47.425Z,16.00
2022-11-19T07:28:50.060Z,15.73
2022-11-19T07:29:52.791Z,15.68
2022-11-19T07:30:56.187Z,16.20
2022-11-19T07:31:58.833Z,17.17
2022-11-19T07:33:01.407Z,15.77
2022-11-19T07:34:07.346Z,17.08
2022-11-19T07:35:10.546Z,15.32
2022-11-19T07:36:18.164Z,15.98
2022-11-19T07:37:21.645Z,16.83
2022-11-19T07:38:24.535Z,15.70
2022-11-19T07:39:27.264Z,17.23
2022-11-19T07:40:30.022Z,17.02
2022-11-19T07:41:51.027Z,16.12
2022-11-19T07:42:53.695Z,16.70
2022-11-19T07:43:56.823Z,16.60
2022-11-19T07:44:59.498Z,16.23
2022-11-19T07:46:06.257Z,16.45
2022-11-19T07:47:09.077Z,16.92
2022-11-19T07:48:11.773Z,16.65
2022-11-19T07:49:14.854Z,16.90
2022-11-19T07:50:17.872Z,16.92
2022-11-19T07:51:20.725Z,17.60
2022-11-19T07:52:23.268Z,17.30
2022-11-19T07:53:25.862Z,16.40
2022-11-19T07:54:28.869Z,17.00
2022-11-19T07:55:31.413Z,17.15
2022-11-19T07:56:34.110Z,17.40
2022-11-19T07:57:37.076Z,17.73
2022-11-19T07:58:39.953Z,16.42
2022-11-19T07:59:42.483Z,17.23
2022-11-19T08:00:45.175Z,17.05
2022-11-19T08:01:47.767Z,16.00
2022-11-19T08:02:50.656Z,16.33
2022-11-19T08:03:56.600Z,17.52
2022-11-19T08:04:59.890Z,17.02
2022-11-19T08:06:06.397Z,17.15
2022-11-19T08:07:09.389Z,17.27
2022-11-19T08:08:12.540Z,17.12
2022-11-19T08:09:15.286Z,17.60
2022-11-19T08:10:18.034Z,16.85
2022-11-19T08:11:20.797Z,17.48
2022-11-19T08:12:23.555Z,16.62
2022-11-19T08:13:26.153Z,16.15
2022-11-19T08:14:29.250Z,17.30
2022-11-19T08:15:35.351Z,15.77
2022-11-19T08:16:57.615Z,15.38
2022-11-19T08:18:12.530Z,17.77
2022-11-19T08:19:18.240Z,16.12
2022-11-19T08:20:21.315Z,16.37
2022-11-19T08:21:23.846Z,15.95
2022-11-19T08:22:26.552Z,16.65
2022-11-19T08:23:29.086Z,17.00
2022-11-19T08:24:31.737Z,15.82
2022-11-19T08:25:34.289Z,15.77
2022-11-19T08:26:38.401Z,14.98
2022-11-19T08:27:41.487Z,16.12
2022-11-19T08:28:44.498Z,15.93
2022-11-19T08:29:47.330Z,16.92
2022-11-19T08:30:50.291Z,15.38
2022-11-19T08:31:52.908Z,16.10
2022-11-19T08:32:55.559Z,15.10
2022-11-19T08:33:58.228Z,14.77
2022-11-19T08:35:00.935Z,14.77
2022-11-19T08:36:04.219Z,13.88
2022-11-19T08:37:06.886Z,16.75
2022-11-19T08:38:10.517Z,15.60
2022-11-19T08:39:13.984Z,16.95
2022-11-19T08:40:16.556Z,15.73
2022-11-19T08:41:37.868Z,16.08
2022-11-19T08:42:59.676Z,16.87
2022-11-19T08:44:03.841Z,16.52
2022-11-19T08:45:07.394Z,16.90
2022-11-19T08:46:10.024Z,15.95
2022-11-19T08:47:12.745Z,16.08
2022-11-19T08:48:15.498Z,17.25
2022-11-19T08:49:19.100Z,17.35
2022-11-19T08:50:24.127Z,16.73
2022-11-19T08:51:26.987Z,17.48
2022-11-19T08:52:29.743Z,16.08
2022-11-19T08:53:33.013Z,17.48
2022-11-19T08:54:35.628Z,17.95
2022-11-19T08:55:38.209Z,16.62
2022-11-19T08:56:40.929Z,15.85
2022-11-19T08:57:43.705Z,16.15
2022-11-19T08:58:46.880Z,15.93
2022-11-19T08:59:49.639Z,15.68
2022-11-19T09:00:52.194Z,17.02
2022-11-19T09:01:55.057Z,16.42
2022-11-19T09:02:57.855Z,15.43
2022-11-19T09:04:00.671Z,15.68
2022-11-19T09:05:03.323Z,16.23
2022-11-19T09:06:07.736Z,15.80
2022-11-19T09:07:10.955Z,19.00
2022-11-19T09:08:13.725Z,19.83
2022-11-19T09:09:16.547Z,19.17
2022-11-19T09:10:19.186Z,17.25
2022-11-19T09:11:23.076Z,19.23
2022-11-19T09:12:26.016Z,19.17
2022-11-19T09:13:28.577Z,17.12
2022-11-19T09:14:31.074Z,18.12
2022-11-19T09:15:33.619Z,18.17
2022-11-19T09:16:36.555Z,17.25
2022-11-19T09:17:43.788Z,15.40
2022-11-19T09:18:49.107Z,15.80
2022-11-19T09:19:51.771Z,16.60
2022-11-19T09:20:56.285Z,15.27
2022-11-19T09:21:58.990Z,14.87
2022-11-19T09:23:01.740Z,15.13
2022-11-19T09:24:04.966Z,15.95
2022-11-19T09:25:09.166Z,16.65
2022-11-19T09:26:15.226Z,19.95
2022-11-19T09:27:18.305Z,23.80
2022-11-19T09:28:21.099Z,19.10
2022-11-19T09:29:23.808Z,19.67
2022-11-19T09:30:26.571Z,17.95
2022-11-19T09:31:29.232Z,16.33
2022-11-19T09:32:32.425Z,17.30
2022-11-19T09:33:36.961Z,15.60
2022-11-19T09:34:41.529Z,15.48
2022-11-19T09:35:44.109Z,16.30
2022-11-19T09:36:46.855Z,15.35
2022-11-19T09:37:49.648Z,15.25
2022-11-19T09:38:56.980Z,14.93
2022-11-19T09:39:59.881Z,15.25
2022-11-19T09:41:28.748Z,14.45
2022-11-19T09:42:40.326Z,14.43
2022-11-19T09:44:57.243Z,15.82
2022-11-19T09:46:10.863Z,16.20
2022-11-19T09:47:36.482Z,16.27
2022-11-19T09:48:39.786Z,15.77
2022-11-19T09:50:01.573Z,15.73
2022-11-19T09:51:15.267Z,15.98
2022-11-19T09:52:21.702Z,15.52
2022-11-19T09:53:30.523Z,15.43
2022-11-19T09:54:34.396Z,16.05
2022-11-19T09:55:40.938Z,15.68
2022-11-19T09:56:46.291Z,16.08
2022-11-19T09:57:55.563Z,16.48
2022-11-19T09:59:01.006Z,16.00
2022-11-19T10:00:06.747Z,17.08
2022-11-19T10:01:18.075Z,17.50
2022-11-19T10:02:22.919Z,15.90
2022-11-19T10:03:32.781Z,16.62
2022-11-19T10:04:37.012Z,16.62
2022-11-19T10:06:07.129Z,17.67
2022-11-19T10:07:47.654Z,16.52
2022-11-19T10:08:56.269Z,16.77
2022-11-19T10:10:17.106Z,18.02
2022-11-19T10:11:47.767Z,17.58
2022-11-19T10:13:18.456Z,16.92
2022-11-19T10:14:48.938Z,18.33
2022-11-19T10:16:12.536Z,18.08
2022-11-19T10:17:28.688Z,17.37
2022-11-19T10:18:33.953Z,17.58
2022-11-19T10:19:51.750Z,18.92
2022-11-19T10:21:09.220Z,17.48
2022-11-19T10:22:39.759Z,18.52
2022-11-19T10:23:54.854Z,17.30
2022-11-19T10:25:18.916Z,18.27
2022-11-19T10:26:34.088Z,17.42
2022-11-19T10:28:02.120Z,16.95
2022-11-19T10:29:15.536Z,16.75
2022-11-19T10:30:23.788Z,16.60
2022-11-19T10:31:32.959Z,17.85
2022-11-19T10:32:43.490Z,18.65
2022-11-19T10:34:13.514Z,18.83
2022-11-19T10:35:21.489Z,17.33
2022-11-19T10:36:32.219Z,17.98
2022-11-19T10:37:42.172Z,17.23
2022-11-19T10:39:19.163Z,16.58
2022-11-19T10:40:24.940Z,16.58
2022-11-19T10:41:37.869Z,17.27
2022-11-19T10:42:46.760Z,15.88
2022-11-19T10:44:35.170Z,17.05
2022-11-19T10:45:37.784Z,16.17
2022-11-19T10:46:42.324Z,16.17
2022-11-19T10:47:58.282Z,15.38
2022-11-19T10:49:02.243Z,15.65
2022-11-19T10:50:10.958Z,16.45
2022-11-19T10:51:29.755Z,16.73
2022-11-19T10:52:38.521Z,16.33
2022-11-19T10:53:42.717Z,15.50
2022-11-19T10:54:47.774Z,16.40
2022-11-19T10:55:55.759Z,15.75
2022-11-19T10:57:00.543Z,16.02
2022-11-19T10:58:11.703Z,16.45
2022-11-19T10:59:20.288Z,16.50
2022-11-19T11:00:23.301Z,17.48
2022-11-19T11:01:30.282Z,17.42
2022-11-19T11:02:57.974Z,17.15
2022-11-19T11:04:21.776Z,16.30
2022-11-19T11:05:24.503Z,15.93
2022-11-19T11:06:27.294Z,16.17
2022-11-19T11:08:11.513Z,16.83
2022-11-19T11:09:36.281Z,16.37
2022-11-19T11:10:45.970Z,15.40
2022-11-19T11:12:07.136Z,15.32
2022-11-19T11:13:55.125Z,15.55
2022-11-19T11:15:13.387Z,15.55
2022-11-19T11:16:19.523Z,15.70
2022-11-19T11:17:26.341Z,15.95
2022-11-19T11:18:35.300Z,15.63
2022-11-19T11:19:38.301Z,15.50
2022-11-19T11:20:48.261Z,17.20
2022-11-19T11:21:55.688Z,18.45
2022-11-19T11:23:10.559Z,17.67
2022-11-19T11:24:14.667Z,16.15
2022-11-19T11:25:27.886Z,16.48
2022-11-19T11:26:33.985Z,15.73
2022-11-19T11:27:36.705Z,17.37
2022-11-19T11:29:11.764Z,17.12
2022-11-19T11:30:16.392Z,15.65
2022-11-19T11:31:30.308Z,17.75
2022-11-19T11:33:56.532Z,17.23
2022-11-19T11:35:02.359Z,17.45
2022-11-19T11:36:14.245Z,18.35
2022-11-19T11:37:17.767Z,17.08
2022-11-19T11:38:22.872Z,18.45
2022-11-19T11:39:31.404Z,18.05
2022-11-19T11:40:34.333Z,18.92
2022-11-19T11:43:06.080Z,17.90
2022-11-19T11:44:14.623Z,18.50
2022-11-19T11:45:33.493Z,18.90
2022-11-19T11:46:50.159Z,18.02
2022-11-19T11:47:53.040Z,17.50
2022-11-19T11:49:09.723Z,17.75
2022-11-19T11:50:22.090Z,17.80
2022-11-19T11:51:37.049Z,17.27
2022-11-19T11:52:48.291Z,17.58
2022-11-19T11:54:05.663Z,19.40
2022-11-19T11:55:16.265Z,19.73
2022-11-19T11:56:21.949Z,17.98
2022-11-19T11:57:31.032Z,17.70
2022-11-19T11:58:34.805Z,17.77
2022-11-19T11:59:37.899Z,16.87
2022-11-19T12:00:44.722Z,17.65
2022-11-19T12:02:04.558Z,17.75
2022-11-19T12:03:15.981Z,17.83
2022-11-19T12:04:18.583Z,18.10
2022-11-19T12:05:21.855Z,18.37
2022-11-19T12:06:29.393Z,17.40
2022-11-19T12:07:54.017Z,17.40
2022-11-19T12:09:22.641Z,17.12
2022-11-19T12:10:40.536Z,19.08
2022-11-19T12:12:02.540Z,17.45
2022-11-19T12:15:00.779Z,16.98
2022-11-19T12:16:27.629Z,16.77
2022-11-19T12:17:35.421Z,15.93
2022-11-19T12:18:47.445Z,18.05
2022-11-19T12:20:05.906Z,17.55
2022-11-19T12:21:22.580Z,16.50
2022-11-19T12:22:35.538Z,16.50
2022-11-19T12:23:49.624Z,18.40
2022-11-19T12:25:18.586Z,16.33
2022-11-19T12:26:48.965Z,17.20
2022-11-19T12:28:31.133Z,17.00
2022-11-19T12:29:56.753Z,17.20
2022-11-19T12:31:32.837Z,16.73
2022-11-19T12:32:44.634Z,16.50
2022-11-19T12:34:05.696Z,16.98
2022-11-19T12:35:27.840Z,15.75
2022-11-19T12:36:48.041Z,17.10
2022-11-19T12:38:04.975Z,16.70
2022-11-19T12:39:29.535Z,16.62
2022-11-19T12:40:41.128Z,16.15
2022-11-19T12:42:06.835Z,17.60
2022-11-19T12:43:15.559Z,17.20
2022-11-19T12:44:34.449Z,17.85
2022-11-19T12:46:01.310Z,18.23
2022-11-19T12:47:04.112Z,16.98
2022-11-19T12:48:16.032Z,17.12
2022-11-19T12:50:14.421Z,17.50
2022-11-19T12:51:45.162Z,16.98
2022-11-19T12:53:10.821Z,17.00
2022-11-19T12:54:30.282Z,16.92
2022-11-19T12:56:03.673Z,16.55
2022-11-19T12:57:15.632Z,18.67
2022-11-19T12:58:43.537Z,16.42
2022-11-19T12:59:55.014Z,16.65
2022-11-19T13:01:06.256Z,16.90
2022-11-19T13:02:19.777Z,16.83
2022-11-19T13:03:39.771Z,16.87
2022-11-19T13:04:48.838Z,15.52
2022-11-19T13:05:58.627Z,17.30
2022-11-19T13:07:12.027Z,16.90
2022-11-19T13:08:34.233Z,17.42
2022-11-19T13:10:00.952Z,16.17
2022-11-19T13:11:11.759Z,16.83
2022-11-19T13:12:18.681Z,16.37
2022-11-19T13:13:27.352Z,16.27
2022-11-19T13:14:40.641Z,16.40
2022-11-19T13:16:08.661Z,17.62
2022-11-19T13:17:23.104Z,16.83
2022-11-19T13:18:30.091Z,16.77
2022-11-19T13:19:36.790Z,15.98
2022-11-19T13:21:06.286Z,16.73
2022-11-19T13:22:27.179Z,15.13
2022-11-19T13:23:43.511Z,16.05
2022-11-19T13:24:53.412Z,15.73
2022-11-19T13:26:06.239Z,15.75
2022-11-19T13:27:23.113Z,15.93
2022-11-19T13:28:35.245Z,15.85
2022-11-19T13:29:44.123Z,15.70
2022-11-19T13:30:51.229Z,15.60
2022-11-19T13:32:02.131Z,16.27
2022-11-19T13:33:23.273Z,18.27
2022-11-19T13:34:42.071Z,17.73
2022-11-19T13:36:03.768Z,16.60
2022-11-19T13:37:21.975Z,17.60
2022-11-19T13:38:45.224Z,19.45
2022-11-19T13:39:53.344Z,17.48
2022-11-19T13:41:11.363Z,18.02
2022-11-19T13:42:35.121Z,17.73
2022-11-19T13:43:56.427Z,17.70
2022-11-19T13:44:59.672Z,18.98
2022-11-19T13:46:10.841Z,16.98
2022-11-19T13:47:33.089Z,18.37
2022-11-19T13:48:43.355Z,18.00
2022-11-19T13:49:53.693Z,17.77
2022-11-19T13:51:03.187Z,16.37
2022-11-19T13:52:31.769Z,15.70
2022-11-19T13:53:42.553Z,14.87
2022-11-19T13:54:46.071Z,14.30
2022-11-19T13:55:54.929Z,16.33
2022-11-19T13:56:58.527Z,15.90
2022-11-19T13:58:34.023Z,14.48
2022-11-19T13:59:46.507Z,15.50
2022-11-19T14:01:08.105Z,16.05
2022-11-19T14:02:32.614Z,14.43
2022-11-19T14:03:46.376Z,13.55
2022-11-19T14:05:07.368Z,13.38
2022-11-19T14:06:42.630Z,13.82
2022-11-19T14:08:17.996Z,14.32
2022-11-19T14:09:32.315Z,13.57
2022-11-19T14:10:46.916Z,14.07
2022-11-19T14:12:01.017Z,13.55
2022-11-19T14:13:28.158Z,13.48
2022-11-19T14:15:02.064Z,13.62
2022-11-19T14:16:28.408Z,12.73
2022-11-19T14:17:55.608Z,14.85
2022-11-19T14:19:23.481Z,14.07
2022-11-19T14:20:53.866Z,14.05
2022-11-19T14:22:15.438Z,14.43
2022-11-19T14:24:08.941Z,14.43
2022-11-19T14:25:30.138Z,13.90
2022-11-19T14:26:41.906Z,14.90
2022-11-19T14:27:46.159Z,14.82
2022-11-19T14:28:53.140Z,14.32
2022-11-19T14:30:12.558Z,15.73
2022-11-19T14:31:17.330Z,15.43
2022-11-19T14:32:31.136Z,16.20
2022-11-19T14:33:48.817Z,15.85
2022-11-19T14:35:00.732Z,15.15
2022-11-19T14:36:13.419Z,15.73
2022-11-19T14:37:23.508Z,16.23
2022-11-19T14:38:35.173Z,15.38
2022-11-19T14:39:44.748Z,16.20
2022-11-19T14:40:59.214Z,17.08
2022-11-19T14:42:20.814Z,16.90
2022-11-19T14:43:42.875Z,15.93
2022-11-19T14:46:04.703Z,14.45
2022-11-19T14:47:43.634Z,15.65
2022-11-19T14:48:46.478Z,14.52
2022-11-19T14:49:53.799Z,15.40
2022-11-19T14:51:34.527Z,14.30
2022-11-19T14:52:49.792Z,14.57
2022-11-19T14:53:59.663Z,14.73
2022-11-19T14:55:17.599Z,15.57
2022-11-19T14:56:23.795Z,14.82